createdAt,value
2018-06-03T00:00:39.367Z,8.53
2018-06-03T00:03:07.475Z,10.00
2018-06-03T00:05:35.551Z,10.00
2018-06-03T00:08:03.672Z,8.60
2018-06-03T00:10:31.859Z,8.27
2018-06-03T00:12:59.956Z,8.70
2018-06-03T00:15:28.040Z,9.37
2018-06-03T00:17:56.165Z,8.13
2018-06-03T00:20:29.596Z,10.67
2018-06-03T00:22:57.680Z,9.83
2018-06-03T00:25:25.773Z,9.57
2018-06-03T00:27:53.884Z,10.10
2018-06-03T00:30:22.001Z,8.67
2018-06-03T00:32:50.147Z,9.03
2018-06-03T00:35:18.230Z,9.53
2018-06-03T00:37:46.530Z,9.57
2018-06-03T00:40:14.603Z,8.73
2018-06-03T00:42:42.691Z,8.40
2018-06-03T00:45:10.836Z,10.37
2018-06-03T00:47:38.936Z,9.10
2018-06-03T00:50:07.062Z,8.83
2018-06-03T00:52:35.155Z,10.00
2018-06-03T00:55:03.244Z,8.93
2018-06-03T00:57:31.323Z,8.97
2018-06-03T00:59:59.395Z,9.30
2018-06-03T01:02:27.496Z,9.30
2018-06-03T01:04:55.594Z,10.03
2018-06-03T01:07:23.681Z,8.70
2018-06-03T01:09:51.772Z,10.23
2018-06-03T01:12:19.903Z,10.73
2018-06-03T01:14:47.976Z,9.80
2018-06-03T01:17:16.279Z,8.67
2018-06-03T01:19:44.364Z,9.60
2018-06-03T01:22:12.468Z,11.63
2018-06-03T01:24:40.568Z,10.03
2018-06-03T01:27:08.667Z,9.60
2018-06-03T01:29:36.789Z,8.80
2018-06-03T01:32:04.905Z,9.43
2018-06-03T01:34:33.005Z,8.97
2018-06-03T01:37:01.101Z,11.10
2018-06-03T01:39:29.228Z,7.93
2018-06-03T01:41:57.346Z,10.00
2018-06-03T01:44:25.476Z,9.47
2018-06-03T01:46:53.552Z,9.97
2018-06-03T01:49:21.643Z,9.20
2018-06-03T01:51:49.723Z,8.63
2018-06-03T01:54:17.866Z,8.87
2018-06-03T01:56:45.947Z,8.80
2018-06-03T01:59:14.031Z,10.90
2018-06-03T02:01:42.133Z,8.63
2018-06-03T02:04:10.224Z,9.00
2018-06-03T02:06:38.347Z,8.33
2018-06-03T02:09:06.979Z,9.70
2018-06-03T02:11:35.056Z,9.40
2018-06-03T02:14:03.146Z,9.63
2018-06-03T02:16:31.242Z,8.90
2018-06-03T02:18:59.352Z,8.87
2018-06-03T02:21:27.444Z,9.07
2018-06-03T02:23:55.554Z,8.37
2018-06-03T02:26:23.636Z,8.57
2018-06-03T02:28:51.781Z,10.93
2018-06-03T02:31:19.854Z,9.57
2018-06-03T02:33:47.957Z,9.37
2018-06-03T02:36:16.076Z,9.60
2018-06-03T02:38:44.195Z,10.73
2018-06-03T02:41:12.264Z,11.50
2018-06-03T02:43:40.367Z,12.27
2018-06-03T02:46:08.489Z,10.87
2018-06-03T02:48:36.637Z,12.70
2018-06-03T02:51:04.712Z,10.17
2018-06-03T02:53:33.307Z,9.23
2018-06-03T02:56:01.421Z,10.80
2018-06-03T02:58:29.517Z,11.47
2018-06-03T03:00:57.615Z,11.37
2018-06-03T03:03:25.729Z,9.13
2018-06-03T03:05:53.915Z,9.93
2018-06-03T03:08:22.092Z,9.53
2018-06-03T03:10:50.175Z,10.23
2018-06-03T03:13:18.276Z,10.77
2018-06-03T03:15:46.373Z,9.47
2018-06-03T03:18:14.464Z,9.20
2018-06-03T03:20:42.660Z,10.87
2018-06-03T03:23:10.832Z,11.80
2018-06-03T03:25:38.904Z,11.40
2018-06-03T03:28:07.036Z,13.10
2018-06-03T03:30:35.254Z,10.73
2018-06-03T03:33:03.430Z,11.37
2018-06-03T03:35:31.635Z,10.43
2018-06-03T03:37:59.719Z,11.57
2018-06-03T03:40:27.819Z,12.70
2018-06-03T03:42:55.917Z,9.80
2018-06-03T03:45:24.005Z,9.33
2018-06-03T03:47:52.111Z,10.23
2018-06-03T03:50:20.217Z,11.37
2018-06-03T03:52:48.322Z,12.03
2018-06-03T03:55:16.415Z,9.87
2018-06-03T03:57:44.483Z,10.27
2018-06-03T04:00:12.758Z,11.83
2018-06-03T04:02:40.872Z,12.33
2018-06-03T04:05:09.662Z,13.07
2018-06-03T04:07:37.763Z,12.20
2018-06-03T04:10:05.949Z,14.23
2018-06-03T04:12:34.043Z,12.63
2018-06-03T04:15:02.127Z,13.83
2018-06-03T04:17:30.256Z,14.63
2018-06-03T04:19:58.351Z,13.47
2018-06-03T04:22:26.441Z,13.40
2018-06-03T04:24:54.720Z,11.47
2018-06-03T04:27:22.831Z,12.57
2018-06-03T04:29:51.009Z,11.80
2018-06-03T04:32:19.087Z,13.00
2018-06-03T04:34:47.231Z,12.07
2018-06-03T04:37:15.315Z,10.23
2018-06-03T04:39:43.417Z,15.27
2018-06-03T04:42:11.563Z,10.70
2018-06-03T04:44:39.639Z,11.23
2018-06-03T04:47:07.737Z,11.57
2018-06-03T04:49:35.835Z,13.30
2018-06-03T04:52:04.135Z,11.13
2018-06-03T04:54:33.562Z,13.50
2018-06-03T04:57:01.683Z,13.63
2018-06-03T04:59:30.884Z,10.40
2018-06-03T05:01:58.975Z,12.73
2018-06-03T05:04:27.428Z,12.13
2018-06-03T05:06:55.571Z,10.97
2018-06-03T05:09:23.930Z,11.63
2018-06-03T05:11:53.966Z,9.93
2018-06-03T05:14:22.530Z,9.90
2018-06-03T05:16:50.812Z,9.47
2018-06-03T05:19:21.964Z,9.33
2018-06-03T05:21:51.356Z,9.00
2018-06-03T05:24:20.723Z,9.77
2018-06-03T05:26:50.044Z,9.33
2018-06-03T05:29:18.132Z,9.77
2018-06-03T05:31:47.182Z,10.67
2018-06-03T05:34:15.919Z,9.83
2018-06-03T05:36:44.370Z,11.00
2018-06-03T05:39:12.919Z,10.90
2018-06-03T05:41:42.026Z,10.83
2018-06-03T05:44:13.801Z,10.13
2018-06-03T05:46:46.500Z,9.13
2018-06-03T05:49:17.672Z,8.77
2018-06-03T05:51:45.741Z,9.60
2018-06-03T05:54:14.380Z,8.83
2018-06-03T05:56:42.810Z,10.57
2018-06-03T05:59:10.936Z,10.53
2018-06-03T06:01:39.028Z,9.17
2018-06-03T06:04:07.530Z,10.07
2018-06-03T06:06:35.635Z,11.27
2018-06-03T06:09:05.818Z,11.00
2018-06-03T06:11:36.783Z,10.97
2018-06-03T06:14:04.885Z,12.73
2018-06-03T06:16:33.120Z,9.83
2018-06-03T06:19:01.268Z,10.10
2018-06-03T06:21:29.368Z,10.07
2018-06-03T06:23:58.370Z,11.53
2018-06-03T06:26:27.849Z,11.07
2018-06-03T06:29:00.530Z,12.80
2018-06-03T06:31:28.619Z,27.53
2018-06-03T06:33:58.100Z,47.83
2018-06-03T06:36:28.967Z,36.90
2018-06-03T06:38:57.663Z,27.40
2018-06-03T06:41:27.728Z,24.87
2018-06-03T06:43:55.875Z,22.97
2018-06-03T06:46:24.402Z,27.07
2018-06-03T06:48:55.115Z,24.10
2018-06-03T06:51:23.199Z,23.13
2018-06-03T06:53:52.246Z,26.77
2018-06-03T06:56:21.177Z,23.83
2018-06-03T06:58:51.158Z,26.07
2018-06-03T07:01:19.484Z,27.07
2018-06-03T07:03:48.313Z,28.47
2018-06-03T07:06:16.463Z,31.07
2018-06-03T07:08:46.424Z,20.47
2018-06-03T07:11:14.542Z,24.23
2018-06-03T07:13:51.064Z,27.27
2018-06-03T07:16:19.880Z,29.43
2018-06-03T07:18:48.643Z,31.17
2018-06-03T07:21:17.846Z,24.83
2018-06-03T07:23:47.109Z,31.40
2018-06-03T07:26:18.827Z,25.33
2018-06-03T07:28:51.425Z,26.37
2018-06-03T07:31:22.785Z,23.40
2018-06-03T07:33:54.664Z,21.70
2018-06-03T07:36:29.312Z,19.83
2018-06-03T07:39:05.684Z,19.27
2018-06-03T07:41:42.503Z,21.30
2018-06-03T07:44:19.142Z,13.97
2018-06-03T07:46:56.589Z,20.40
2018-06-03T07:49:29.446Z,14.53
2018-06-03T07:52:11.544Z,13.17
2018-06-03T07:54:40.817Z,14.03
2018-06-03T07:59:52.708Z,14.43
2018-06-03T08:02:20.790Z,21.47
2018-06-03T08:05:04.284Z,14.63
2018-06-03T08:07:43.545Z,17.87
2018-06-03T08:10:12.452Z,12.27
2018-06-03T08:12:42.579Z,13.00
2018-06-03T08:15:17.286Z,10.40
2018-06-03T08:17:52.370Z,13.50
2018-06-03T08:20:22.500Z,10.17
2018-06-03T08:22:55.395Z,15.87
2018-06-03T08:25:25.772Z,14.57
2018-06-03T08:27:53.896Z,12.37
2018-06-03T08:30:22.040Z,17.20
2018-06-03T08:32:56.643Z,15.80
2018-06-03T08:35:24.804Z,15.73
2018-06-03T08:37:53.217Z,31.20
2018-06-03T08:40:22.737Z,27.77
2018-06-03T08:42:53.004Z,26.30
2018-06-03T08:45:21.280Z,21.03
2018-06-03T08:47:50.848Z,25.87
2018-06-03T08:50:19.926Z,25.23
2018-06-03T08:52:57.072Z,22.73
2018-06-03T08:58:06.448Z,31.60
2018-06-03T09:00:36.308Z,17.50
2018-06-03T09:03:09.437Z,20.10
2018-06-03T09:05:38.020Z,18.40
2018-06-03T09:08:07.632Z,16.97
2018-06-03T09:10:36.950Z,25.00
2018-06-03T09:13:06.912Z,24.67
2018-06-03T09:15:36.930Z,20.33
2018-06-03T09:18:12.534Z,25.60
2018-06-03T09:20:42.476Z,19.10
2018-06-03T09:23:12.647Z,16.03
2018-06-03T09:25:41.235Z,16.20
2018-06-03T09:28:10.204Z,15.97
2018-06-03T09:30:39.726Z,19.90
2018-06-03T09:33:11.277Z,17.37
2018-06-03T09:35:43.479Z,20.27
2018-06-03T09:38:15.708Z,13.47
2018-06-03T09:40:46.257Z,12.73
2018-06-03T09:43:15.765Z,17.43
2018-06-03T09:45:44.203Z,14.23
2018-06-03T09:48:12.910Z,16.00
2018-06-03T09:50:41.965Z,12.03
2018-06-03T09:53:11.887Z,11.97
2018-06-03T09:55:40.092Z,14.13
2018-06-03T09:58:10.582Z,8.43
2018-06-03T10:00:39.999Z,10.07
2018-06-03T10:03:08.946Z,11.93
2018-06-03T10:05:37.172Z,16.80
2018-06-03T10:08:06.816Z,11.23
2018-06-03T10:10:35.811Z,9.80
2018-06-03T10:13:05.702Z,11.63
2018-06-03T10:15:33.839Z,10.20
2018-06-03T10:18:03.795Z,9.67
2018-06-03T10:20:32.578Z,13.33
2018-06-03T10:23:01.039Z,11.33
2018-06-03T10:25:29.112Z,10.43
2018-06-03T10:27:57.552Z,10.37
2018-06-03T10:30:27.009Z,10.17
2018-06-03T10:32:57.536Z,9.90
2018-06-03T10:35:25.951Z,8.50
2018-06-03T10:37:55.400Z,8.07
2018-06-03T10:40:25.479Z,9.27
2018-06-03T10:42:53.571Z,9.73
2018-06-03T10:45:22.365Z,7.43
2018-06-03T10:47:52.757Z,7.47
2018-06-03T10:50:24.613Z,8.17
2018-06-03T10:52:53.798Z,9.77
2018-06-03T10:55:22.072Z,9.10
2018-06-03T10:57:50.204Z,8.37
2018-06-03T11:00:18.474Z,8.80
2018-06-03T11:02:46.568Z,7.87
2018-06-03T11:05:14.692Z,7.87
2018-06-03T11:07:42.812Z,6.60
2018-06-03T11:10:10.908Z,9.17
2018-06-03T11:12:39.188Z,8.17
2018-06-03T11:15:07.417Z,8.03
2018-06-03T11:17:35.488Z,7.17
2018-06-03T11:20:04.957Z,7.50
2018-06-03T11:22:34.271Z,7.90
2018-06-03T11:25:03.029Z,8.27
2018-06-03T11:27:31.503Z,6.10
2018-06-03T11:29:59.605Z,7.23
2018-06-03T11:32:27.901Z,7.30
2018-06-03T11:34:56.005Z,5.77
2018-06-03T11:37:24.117Z,5.67
2018-06-03T11:39:52.244Z,5.20
2018-06-03T11:42:20.343Z,6.80
2018-06-03T11:44:48.477Z,6.90
2018-06-03T11:47:16.564Z,6.40
2018-06-03T11:49:44.651Z,8.40
2018-06-03T11:52:12.757Z,5.87
2018-06-03T11:54:40.639Z,6.30
2018-06-03T11:57:08.772Z,7.50
2018-06-03T11:59:42.010Z,6.03
2018-06-03T12:02:10.518Z,7.50
2018-06-03T12:04:38.642Z,6.03
2018-06-03T12:07:06.767Z,7.30
2018-06-03T12:09:34.854Z,8.10
2018-06-03T12:12:02.961Z,8.50
2018-06-03T12:14:31.112Z,9.90
2018-06-03T12:16:59.231Z,9.80
2018-06-03T12:19:27.335Z,8.13
2018-06-03T12:21:55.444Z,8.50
2018-06-03T12:24:23.554Z,7.07
2018-06-03T12:26:51.645Z,7.20
2018-06-03T12:29:19.764Z,7.73
2018-06-03T12:31:47.861Z,7.07
2018-06-03T12:34:16.133Z,8.10
2018-06-03T12:36:44.348Z,8.63
2018-06-03T12:39:12.459Z,9.63
2018-06-03T12:41:40.620Z,7.03
2018-06-03T12:44:08.749Z,8.27
2018-06-03T12:46:36.879Z,8.23
2018-06-03T12:49:05.171Z,8.53
2018-06-03T12:51:33.153Z,7.40
2018-06-03T12:54:01.362Z,7.93
2018-06-03T12:56:29.468Z,7.43
2018-06-03T12:58:57.647Z,5.83
2018-06-03T13:01:25.770Z,7.07
2018-06-03T13:03:53.868Z,6.60
2018-06-03T13:06:22.024Z,8.13
2018-06-03T13:08:50.066Z,6.33
2018-06-03T13:11:17.979Z,7.30
2018-06-03T13:13:46.133Z,12.53
2018-06-03T13:16:14.301Z,18.40
2018-06-03T13:18:42.688Z,11.77
2018-06-03T13:21:10.808Z,10.97
2018-06-03T13:23:39.744Z,10.97
2018-06-03T13:26:08.019Z,8.93
2018-06-03T13:28:36.128Z,9.13
2018-06-03T13:31:04.617Z,9.67
2018-06-03T13:33:32.763Z,11.77
2018-06-03T13:36:00.880Z,10.33
2018-06-03T13:38:28.993Z,11.15
2018-06-03T13:40:57.143Z,10.97
2018-06-03T13:43:25.033Z,17.60
2018-06-03T13:45:53.196Z,12.00
2018-06-03T13:48:21.319Z,11.43
2018-06-03T13:50:49.431Z,12.13
2018-06-03T13:53:17.382Z,13.97
2018-06-03T13:55:45.498Z,11.40
2018-06-03T13:58:13.612Z,12.83
2018-06-03T14:00:41.707Z,14.67
2018-06-03T14:03:09.791Z,20.23
2018-06-03T14:05:37.891Z,9.13
2018-06-03T14:08:06.020Z,8.23
2018-06-03T14:10:34.178Z,9.53
2018-06-03T14:13:02.308Z,9.10
2018-06-03T14:15:30.406Z,8.83
2018-06-03T14:17:58.512Z,10.60
2018-06-03T14:20:26.880Z,13.10
2018-06-03T14:22:54.972Z,13.70
2018-06-03T14:25:23.074Z,11.60
2018-06-03T14:27:51.231Z,10.70
2018-06-03T14:30:19.336Z,11.80
2018-06-03T14:32:47.416Z,9.47
2018-06-03T14:35:15.499Z,8.63
2018-06-03T14:37:43.585Z,10.73
2018-06-03T14:40:11.680Z,13.37
2018-06-03T14:42:39.779Z,10.50
2018-06-03T14:45:07.892Z,8.93
2018-06-03T14:47:35.996Z,9.43
2018-06-03T14:50:04.096Z,10.77
2018-06-03T14:52:32.046Z,10.63
2018-06-03T14:55:00.179Z,9.57
2018-06-03T14:57:28.277Z,8.20
2018-06-03T14:59:56.305Z,9.07
2018-06-03T15:02:24.383Z,9.10
2018-06-03T15:04:52.473Z,8.27
2018-06-03T15:07:20.546Z,8.57
2018-06-03T15:09:48.641Z,10.20
2018-06-03T15:12:16.739Z,10.63
2018-06-03T15:14:44.833Z,10.67
2018-06-03T15:17:12.955Z,10.83
2018-06-03T15:19:41.071Z,12.53
2018-06-03T15:22:09.164Z,19.27
2018-06-03T15:24:37.353Z,14.53
2018-06-03T15:27:05.492Z,12.47
2018-06-03T15:29:33.591Z,10.20
2018-06-03T15:32:01.697Z,10.77
2018-06-03T15:34:29.840Z,10.90
2018-06-03T15:36:57.952Z,10.13
2018-06-03T15:39:26.048Z,12.50
2018-06-03T15:41:54.142Z,12.40
2018-06-03T15:44:22.215Z,10.80
2018-06-03T15:46:50.368Z,11.47
2018-06-03T15:49:18.512Z,12.40
2018-06-03T15:51:46.636Z,10.53
2018-06-03T15:54:14.731Z,8.13
2018-06-03T15:56:43.379Z,8.90
2018-06-03T15:59:12.195Z,10.67
2018-06-03T16:01:43.421Z,8.73
2018-06-03T16:04:11.544Z,11.37
2018-06-03T16:06:41.758Z,9.60
2018-06-03T16:09:09.865Z,13.87
2018-06-03T16:11:38.000Z,9.90
2018-06-03T16:14:06.075Z,39.47
2018-06-03T16:16:34.367Z,15.53
2018-06-03T16:19:02.496Z,14.83
2018-06-03T16:21:30.678Z,9.13
2018-06-03T16:23:58.791Z,12.03
2018-06-03T16:26:26.873Z,12.30
2018-06-03T16:28:54.983Z,16.83
2018-06-03T16:31:23.091Z,17.87
2018-06-03T16:33:51.172Z,10.07
2018-06-03T16:36:19.698Z,13.70
2018-06-03T16:38:47.776Z,12.57
2018-06-03T16:41:16.028Z,11.73
2018-06-03T16:43:44.160Z,9.87
2018-06-03T16:46:12.351Z,9.80
2018-06-03T16:48:42.627Z,10.73
2018-06-03T16:51:10.724Z,8.07
2018-06-03T16:53:38.647Z,8.03
2018-06-03T16:56:06.752Z,12.63
2018-06-03T16:58:35.109Z,7.10
2018-06-03T17:01:03.318Z,7.67
2018-06-03T17:03:34.050Z,9.97
2018-06-03T17:06:04.049Z,9.67
2018-06-03T17:08:33.158Z,6.97
2018-06-03T17:11:03.684Z,8.00
2018-06-03T17:13:33.585Z,5.97
2018-06-03T17:16:01.788Z,8.30
2018-06-03T17:18:30.780Z,6.53
2018-06-03T17:21:00.031Z,5.47
2018-06-03T17:23:29.954Z,5.83
2018-06-03T17:25:58.740Z,6.17
2018-06-03T17:28:29.142Z,4.97
2018-06-03T17:30:57.242Z,5.37
2018-06-03T17:33:25.332Z,5.10
2018-06-03T17:35:53.504Z,6.07
2018-06-03T17:38:21.607Z,6.67
2018-06-03T17:40:49.708Z,17.27
2018-06-03T17:43:18.036Z,10.00
2018-06-03T17:45:46.177Z,10.80
2018-06-03T17:48:15.163Z,5.97
2018-06-03T17:50:43.946Z,11.13
2018-06-03T17:53:12.470Z,12.23
2018-06-03T17:55:43.208Z,5.63
2018-06-03T17:58:11.477Z,7.37
2018-06-03T18:00:40.875Z,5.77
2018-06-03T18:03:08.956Z,8.63
2018-06-03T18:05:37.162Z,5.10
2018-06-03T18:08:05.299Z,6.23
2018-06-03T18:10:33.490Z,7.03
2018-06-03T18:13:01.722Z,4.97
2018-06-03T18:15:29.603Z,5.13
2018-06-03T18:17:57.716Z,5.93
2018-06-03T18:20:25.823Z,6.03
2018-06-03T18:22:53.956Z,4.80
2018-06-03T18:25:22.072Z,6.97
2018-06-03T18:27:50.397Z,13.97
2018-06-03T18:30:18.476Z,5.70
2018-06-03T18:32:46.592Z,4.87
2018-06-03T18:35:14.689Z,6.97
2018-06-03T18:37:42.787Z,5.97
2018-06-03T18:40:10.923Z,4.10
2018-06-03T18:42:39.084Z,4.87
2018-06-03T18:45:07.279Z,4.13
2018-06-03T18:47:35.340Z,3.60
2018-06-03T18:50:03.438Z,4.17
2018-06-03T18:52:31.532Z,3.90
2018-06-03T18:54:59.607Z,4.13
2018-06-03T18:57:27.704Z,4.40
2018-06-03T18:59:55.793Z,6.33
2018-06-03T19:02:23.915Z,3.33
2018-06-03T19:04:54.548Z,5.23
2018-06-03T19:07:22.892Z,3.70
2018-06-03T19:09:50.976Z,4.00
2018-06-03T19:12:19.128Z,3.93
2018-06-03T19:14:47.408Z,5.23
2018-06-03T19:17:16.865Z,5.17
2018-06-03T19:19:46.675Z,4.17
2018-06-03T19:22:14.904Z,4.73
2018-06-03T19:24:43.190Z,10.27
2018-06-03T19:27:11.256Z,6.83
2018-06-03T19:29:39.336Z,13.53
2018-06-03T19:32:07.407Z,5.40
2018-06-03T19:34:35.509Z,9.73
2018-06-03T19:37:03.712Z,6.53
2018-06-03T19:39:31.840Z,9.83
2018-06-03T19:42:00.548Z,6.23
2018-06-03T19:44:29.298Z,7.80
2018-06-03T19:46:57.424Z,11.27
2018-06-03T19:49:26.775Z,6.93
2018-06-03T19:51:55.628Z,8.67
2018-06-03T19:54:24.421Z,5.80
2018-06-03T19:56:55.403Z,7.20
2018-06-03T19:59:23.520Z,4.03
2018-06-03T20:01:51.642Z,7.27
2018-06-03T20:04:22.441Z,4.80
2018-06-03T20:06:51.414Z,4.47
2018-06-03T20:09:22.271Z,5.40
2018-06-03T20:11:50.394Z,4.67
2018-06-03T20:14:18.608Z,4.53
2018-06-03T20:16:46.779Z,6.33
2018-06-03T20:19:14.905Z,7.90
2018-06-03T20:21:43.118Z,7.53
2018-06-03T20:24:11.192Z,6.73
2018-06-03T20:26:39.321Z,10.20
2018-06-03T20:29:07.408Z,6.07
2018-06-03T20:31:35.542Z,11.43
2018-06-03T20:34:03.647Z,8.67
2018-06-03T20:36:31.775Z,5.47
2018-06-03T20:38:59.887Z,8.37
2018-06-03T20:41:27.967Z,5.57
2018-06-03T20:43:56.078Z,9.30
2018-06-03T20:46:25.094Z,12.87
2018-06-03T20:48:53.263Z,8.93
2018-06-03T20:51:21.378Z,7.67
2018-06-03T20:53:49.517Z,7.33
2018-06-03T20:56:17.608Z,6.23
2018-06-03T20:58:46.856Z,7.63
2018-06-03T21:01:15.052Z,15.10
2018-06-03T21:03:45.546Z,8.03
2018-06-03T21:06:13.633Z,6.17
2018-06-03T21:08:41.752Z,10.30
2018-06-03T21:11:10.964Z,5.87
2018-06-03T21:13:39.950Z,7.67
2018-06-03T21:16:08.054Z,8.67
2018-06-03T21:18:36.204Z,6.60
2018-06-03T21:21:04.321Z,7.67
2018-06-03T21:23:32.382Z,4.53
2018-06-03T21:26:00.471Z,10.60
2018-06-03T21:28:28.564Z,6.10
2018-06-03T21:30:56.653Z,5.47
2018-06-03T21:33:24.760Z,5.87
2018-06-03T21:35:52.876Z,5.50
2018-06-03T21:38:21.261Z,8.03
2018-06-03T21:40:49.368Z,6.33
2018-06-03T21:43:17.443Z,5.17
2018-06-03T21:45:45.537Z,6.77
2018-06-03T21:48:13.643Z,5.17
2018-06-03T21:50:41.785Z,4.70
2018-06-03T21:53:09.993Z,6.40
2018-06-03T21:55:38.043Z,4.77
2018-06-03T21:58:06.123Z,5.17
2018-06-03T22:00:34.216Z,5.60
2018-06-03T22:03:02.352Z,4.03
2018-06-03T22:05:30.437Z,6.57
2018-06-03T22:07:58.531Z,3.87
2018-06-03T22:10:26.627Z,5.70
2018-06-03T22:12:54.700Z,5.93
2018-06-03T22:15:22.840Z,4.43
2018-06-03T22:17:50.993Z,4.17
2018-06-03T22:20:19.075Z,3.83
2018-06-03T22:22:47.192Z,4.20
2018-06-03T22:25:15.287Z,4.47
2018-06-03T22:27:43.358Z,5.53
2018-06-03T22:30:11.459Z,6.90
2018-06-03T22:32:39.536Z,6.13
2018-06-03T22:35:07.632Z,6.77
2018-06-03T22:37:35.769Z,4.67
2018-06-03T22:40:03.886Z,3.77
2018-06-03T22:42:31.983Z,5.30
2018-06-03T22:44:59.953Z,3.30
2018-06-03T22:47:28.036Z,5.10
2018-06-03T22:49:56.235Z,5.30
2018-06-03T22:52:24.460Z,4.03
2018-06-03T22:54:52.542Z,5.13
2018-06-03T22:57:55.219Z,3.07
2018-06-03T23:00:29.995Z,3.77
2018-06-03T23:03:03.781Z,4.53
2018-06-03T23:05:31.944Z,5.27
2018-06-03T23:08:00.148Z,6.30
2018-06-03T23:10:28.320Z,3.27
2018-06-03T23:12:56.402Z,4.97
2018-06-03T23:15:24.616Z,6.27
2018-06-03T23:17:52.733Z,5.20
2018-06-03T23:20:20.813Z,4.00
2018-06-03T23:22:48.929Z,4.53
2018-06-03T23:25:16.991Z,4.87
2018-06-03T23:27:45.099Z,4.83
2018-06-03T23:30:13.232Z,4.27
2018-06-03T23:32:41.359Z,5.77
2018-06-03T23:35:09.427Z,4.43
2018-06-03T23:37:37.341Z,4.30
2018-06-03T23:40:05.415Z,5.67
2018-06-03T23:42:33.510Z,4.27
2018-06-03T23:45:01.621Z,4.97
2018-06-03T23:47:29.704Z,4.47
2018-06-03T23:49:57.794Z,4.60
2018-06-03T23:52:25.907Z,4.57
2018-06-03T23:54:54.259Z,5.17
2018-06-03T23:57:22.623Z,4.73
2018-06-03T23:59:50.798Z,5.43
